createdAt,value
2023-02-27T00:02:17.505Z,3.77
2023-02-27T00:04:46.143Z,3.43
2023-02-27T00:07:14.015Z,3.93
2023-02-27T00:09:42.118Z,4.10
2023-02-27T00:12:10.332Z,4.30
2023-02-27T00:14:40.420Z,4.13
2023-02-27T00:17:08.100Z,3.73
2023-02-27T00:19:35.628Z,12.87
2023-02-27T00:22:03.116Z,11.27
2023-02-27T00:24:31.084Z,9.13
2023-02-27T00:26:58.818Z,6.27
2023-02-27T00:29:26.267Z,5.40
2023-02-27T00:31:53.912Z,6.43
2023-02-27T00:34:21.497Z,5.40
2023-02-27T00:36:49.089Z,4.00
2023-02-27T00:39:16.558Z,4.83
2023-02-27T00:41:44.098Z,4.27
2023-02-27T00:44:11.519Z,3.90
2023-02-27T00:46:39.029Z,3.57
2023-02-27T00:49:06.786Z,4.10
2023-02-27T00:51:34.313Z,3.40
2023-02-27T00:54:04.108Z,4.70
2023-02-27T00:56:31.636Z,3.87
2023-02-27T00:58:59.169Z,3.93
2023-02-27T01:01:26.937Z,4.00
2023-02-27T01:03:56.896Z,4.20
2023-02-27T01:06:24.472Z,3.50
2023-02-27T01:08:51.963Z,3.93
2023-02-27T01:11:19.807Z,3.73
2023-02-27T01:13:47.379Z,3.43
2023-02-27T01:16:15.457Z,4.07
2023-02-27T01:18:43.049Z,4.43
2023-02-27T01:21:10.612Z,3.53
2023-02-27T01:23:38.104Z,2.97
2023-02-27T01:26:05.749Z,2.83
2023-02-27T01:28:34.911Z,3.13
2023-02-27T01:31:02.551Z,3.07
2023-02-27T01:33:32.481Z,2.67
2023-02-27T01:36:01.431Z,3.20
2023-02-27T01:38:28.955Z,2.80
2023-02-27T01:40:57.376Z,2.90
2023-02-27T01:43:25.031Z,2.37
2023-02-27T01:45:53.709Z,2.37
2023-02-27T01:48:37.707Z,2.27
2023-02-27T01:51:16.176Z,2.07
2023-02-27T01:53:46.792Z,2.63
2023-02-27T01:56:20.839Z,2.10
2023-02-27T01:58:51.446Z,2.17
2023-02-27T02:01:21.191Z,2.50
2023-02-27T02:04:30.587Z,2.00
2023-02-27T02:07:07.640Z,2.50
2023-02-27T02:09:48.976Z,2.77
2023-02-27T02:12:19.800Z,3.70
2023-02-27T02:14:47.351Z,5.57
2023-02-27T02:17:26.807Z,6.60
2023-02-27T02:20:08.922Z,19.57
2023-02-27T02:23:16.186Z,9.43
2023-02-27T02:26:25.083Z,9.20
2023-02-27T02:29:19.544Z,12.10
2023-02-27T02:32:32.993Z,13.27
2023-02-27T02:35:36.634Z,16.00
2023-02-27T02:38:25.046Z,17.20
2023-02-27T02:41:13.515Z,15.93
2023-02-27T02:43:57.380Z,11.70
2023-02-27T02:46:58.196Z,11.07
2023-02-27T02:49:57.993Z,11.27
2023-02-27T02:52:44.857Z,11.17
2023-02-27T02:55:33.654Z,10.70
2023-02-27T02:58:15.496Z,7.00
2023-02-27T03:00:59.359Z,6.90
2023-02-27T03:03:46.043Z,10.37
2023-02-27T03:06:25.336Z,12.13
2023-02-27T03:09:00.117Z,8.63
2023-02-27T03:11:33.337Z,7.53
2023-02-27T03:14:25.613Z,6.13
2023-02-27T03:17:01.866Z,4.83
2023-02-27T03:19:41.757Z,4.80
2023-02-27T03:22:15.742Z,4.63
2023-02-27T03:25:06.929Z,5.13
2023-02-27T03:27:46.050Z,4.03
2023-02-27T03:30:37.269Z,4.33
2023-02-27T03:33:30.585Z,12.10
2023-02-27T03:36:15.673Z,15.93
2023-02-27T03:38:54.762Z,11.80
2023-02-27T03:42:04.490Z,9.37
2023-02-27T03:45:39.379Z,7.93
2023-02-27T03:48:09.076Z,7.17
2023-02-27T03:50:38.433Z,6.10
2023-02-27T03:53:37.933Z,5.90
2023-02-27T03:56:08.926Z,4.67
2023-02-27T03:58:36.974Z,4.67
2023-02-27T04:01:04.796Z,9.77
2023-02-27T04:03:49.843Z,8.37
2023-02-27T04:06:50.813Z,9.93
2023-02-27T04:09:57.901Z,7.50
2023-02-27T04:13:02.044Z,6.20
2023-02-27T04:16:00.713Z,5.40
2023-02-27T04:18:56.938Z,6.10
2023-02-27T04:21:34.319Z,5.03
2023-02-27T04:24:35.498Z,5.70
2023-02-27T04:27:19.367Z,4.97
2023-02-27T04:30:29.181Z,4.73
2023-02-27T04:33:13.286Z,5.30
2023-02-27T04:35:53.259Z,6.43
2023-02-27T04:39:03.905Z,6.17
2023-02-27T04:42:06.943Z,7.50
2023-02-27T04:44:37.021Z,10.77
2023-02-27T04:47:10.850Z,12.90
2023-02-27T04:49:47.106Z,11.83
2023-02-27T04:52:30.176Z,10.57
2023-02-27T04:55:15.296Z,11.27
2023-02-27T04:57:52.101Z,3.23
2023-02-27T05:00:23.627Z,2.30
2023-02-27T05:02:59.920Z,2.40
2023-02-27T05:05:32.886Z,1.30
2023-02-27T05:08:55.403Z,1.80
2023-02-27T05:11:38.710Z,1.30
2023-02-27T05:17:39.295Z,1.10
2023-02-27T05:20:07.684Z,1.10
2023-02-27T05:22:59.850Z,1.33
2023-02-27T05:25:58.912Z,1.10
2023-02-27T05:28:56.012Z,1.20
2023-02-27T05:48:40.233Z,1.80
2023-02-27T05:51:11.823Z,1.93
2023-02-27T05:53:51.246Z,2.37
2023-02-27T05:56:22.264Z,2.50
2023-02-27T05:59:01.323Z,2.97
2023-02-27T06:01:28.812Z,3.57
2023-02-27T06:03:57.762Z,2.77
2023-02-27T06:06:26.116Z,3.37
2023-02-27T06:08:53.719Z,4.90
2023-02-27T06:11:21.182Z,5.10
2023-02-27T06:13:48.633Z,6.50
2023-02-27T06:16:17.200Z,3.93
2023-02-27T06:18:44.755Z,6.53
2023-02-27T06:21:14.275Z,6.37
2023-02-27T06:23:41.872Z,4.80
2023-02-27T06:26:14.144Z,5.40
2023-02-27T06:28:42.611Z,7.23
2023-02-27T06:31:10.044Z,4.90
2023-02-27T06:33:40.856Z,4.93
2023-02-27T06:36:08.442Z,4.67
2023-02-27T06:38:36.902Z,3.50
2023-02-27T06:41:04.511Z,4.17
2023-02-27T06:43:34.749Z,4.13
2023-02-27T06:46:02.659Z,3.00
2023-02-27T06:48:30.153Z,2.00
2023-02-27T06:50:58.109Z,2.10
2023-02-27T06:53:26.121Z,2.13
2023-02-27T06:55:53.587Z,3.60
2023-02-27T06:58:21.114Z,3.20
2023-02-27T07:00:48.622Z,3.00
2023-02-27T07:03:16.212Z,2.60
2023-02-27T07:05:44.763Z,2.50
2023-02-27T07:08:12.295Z,1.80
2023-02-27T07:10:40.311Z,1.70
2023-02-27T07:13:07.694Z,1.77
2023-02-27T07:15:35.730Z,1.90
2023-02-27T07:18:03.427Z,1.93
2023-02-27T07:20:30.932Z,1.93
2023-02-27T07:22:58.499Z,2.20
2023-02-27T07:25:26.007Z,2.87
2023-02-27T07:27:53.473Z,2.07
2023-02-27T07:30:21.045Z,2.60
2023-02-27T07:32:50.777Z,2.10
2023-02-27T07:35:19.500Z,2.77
2023-02-27T07:37:48.235Z,2.23
2023-02-27T07:40:16.650Z,2.13
2023-02-27T07:42:44.205Z,2.97
2023-02-27T07:45:13.191Z,1.83
2023-02-27T07:47:40.708Z,2.07
2023-02-27T07:50:09.299Z,2.40
2023-02-27T07:52:36.705Z,3.50
2023-02-27T07:55:04.229Z,1.70
2023-02-27T07:57:53.910Z,2.33
2023-02-27T08:00:22.296Z,3.43
2023-02-27T08:02:50.349Z,1.93
2023-02-27T08:05:18.433Z,1.80
2023-02-27T08:07:46.012Z,2.23
2023-02-27T08:10:16.205Z,2.10
2023-02-27T08:12:44.840Z,3.67
2023-02-27T08:15:12.797Z,2.30
2023-02-27T08:17:40.280Z,1.77
2023-02-27T08:20:11.334Z,2.63
2023-02-27T08:22:38.958Z,2.03
2023-02-27T08:25:10.793Z,1.97
2023-02-27T08:27:39.344Z,2.03
2023-02-27T08:30:09.360Z,1.70
2023-02-27T08:32:38.660Z,1.90
2023-02-27T08:35:07.475Z,2.10
2023-02-27T08:37:35.020Z,1.80
2023-02-27T08:40:02.517Z,2.30
2023-02-27T08:42:30.359Z,2.00
2023-02-27T08:44:58.273Z,1.70
2023-02-27T08:47:26.548Z,1.60
2023-02-27T08:49:56.653Z,1.87
2023-02-27T08:52:25.085Z,2.03
2023-02-27T08:54:52.612Z,1.77
2023-02-27T08:57:20.457Z,2.53
2023-02-27T08:59:48.310Z,3.27
2023-02-27T09:02:16.056Z,3.30
2023-02-27T09:04:43.516Z,4.70
2023-02-27T09:07:12.238Z,3.70
2023-02-27T09:09:39.814Z,3.37
2023-02-27T09:12:08.138Z,4.20
2023-02-27T09:14:37.356Z,3.43
2023-02-27T09:17:06.060Z,3.30
2023-02-27T09:19:36.325Z,3.30
2023-02-27T09:22:05.952Z,5.37
2023-02-27T09:24:33.475Z,4.20
2023-02-27T09:27:01.939Z,4.00
2023-02-27T09:29:32.124Z,3.97
2023-02-27T09:32:04.743Z,3.70
2023-02-27T09:34:35.643Z,3.07
2023-02-27T09:37:03.207Z,2.93
2023-02-27T09:39:30.933Z,3.30
2023-02-27T09:42:24.304Z,2.83
2023-02-27T09:44:57.605Z,2.90
2023-02-27T09:47:50.841Z,2.87
2023-02-27T09:50:41.056Z,2.87
2023-02-27T09:53:37.765Z,2.10
2023-02-27T09:56:29.964Z,2.07
2023-02-27T09:59:09.221Z,2.20
2023-02-27T10:02:27.018Z,2.17
2023-02-27T10:05:30.699Z,2.40
2023-02-27T10:08:30.348Z,3.03
2023-02-27T10:11:12.198Z,2.87
2023-02-27T10:14:33.986Z,3.30
2023-02-27T10:17:12.119Z,2.57
2023-02-27T10:19:41.034Z,2.73
2023-02-27T10:22:30.947Z,2.70
2023-02-27T10:25:29.740Z,2.63
2023-02-27T10:28:16.635Z,2.57
2023-02-27T10:31:24.204Z,2.33
2023-02-27T10:33:53.627Z,2.40
2023-02-27T10:36:33.620Z,2.40
2023-02-27T10:39:12.523Z,2.10
2023-02-27T10:41:41.654Z,2.10
2023-02-27T10:44:14.628Z,1.60
2023-02-27T10:46:43.168Z,1.60
2023-02-27T10:49:22.171Z,1.85
2023-02-27T10:52:13.509Z,1.90
2023-02-27T10:54:43.077Z,1.73
2023-02-27T10:57:30.415Z,1.77
2023-02-27T11:00:28.257Z,1.63
2023-02-27T11:02:55.950Z,2.08
2023-02-27T11:05:32.215Z,1.70
2023-02-27T11:08:31.409Z,2.10
2023-02-27T11:11:07.150Z,2.38
2023-02-27T11:13:45.521Z,2.40
2023-02-27T11:16:21.854Z,2.72
2023-02-27T11:18:52.378Z,2.05
2023-02-27T11:21:24.801Z,2.97
2023-02-27T11:24:17.989Z,2.40
2023-02-27T11:27:03.729Z,3.35
2023-02-27T11:29:35.421Z,3.10
2023-02-27T11:32:15.052Z,3.75
2023-02-27T11:34:50.778Z,3.97
2023-02-27T11:37:35.469Z,4.93
2023-02-27T11:40:14.747Z,4.47
2023-02-27T11:42:50.421Z,4.68
2023-02-27T11:46:13.989Z,4.82
2023-02-27T11:48:28.421Z,5.03
2023-02-27T11:51:26.731Z,4.20
2023-02-27T11:54:01.036Z,4.68
2023-02-27T11:56:41.904Z,5.00
2023-02-27T11:59:15.003Z,5.03
2023-02-27T12:02:03.780Z,5.38
2023-02-27T12:04:55.842Z,5.35
2023-02-27T12:08:19.958Z,4.75
2023-02-27T12:11:14.229Z,4.93
2023-02-27T12:13:58.092Z,5.00
2023-02-27T12:16:37.148Z,5.20
2023-02-27T12:19:22.763Z,5.00
2023-02-27T12:22:06.822Z,4.95
2023-02-27T12:24:47.258Z,5.05
2023-02-27T12:27:34.075Z,5.07
2023-02-27T12:30:28.688Z,5.57
2023-02-27T12:33:18.403Z,5.15
2023-02-27T12:35:56.203Z,5.55
2023-02-27T12:38:24.807Z,6.40
2023-02-27T12:40:54.709Z,6.15
2023-02-27T12:44:06.708Z,5.97
2023-02-27T12:46:55.735Z,5.28
2023-02-27T12:49:52.940Z,5.07
2023-02-27T12:53:01.722Z,5.82
2023-02-27T12:55:54.199Z,6.00
2023-02-27T12:58:58.487Z,5.50
2023-02-27T13:01:37.538Z,6.32
2023-02-27T13:04:45.092Z,5.80
2023-02-27T13:07:37.499Z,6.15
2023-02-27T13:10:34.979Z,6.72
2023-02-27T13:13:46.803Z,6.55
2023-02-27T13:16:37.208Z,6.22
2023-02-27T13:19:24.470Z,6.18
2023-02-27T13:22:29.326Z,6.38
2023-02-27T13:25:01.504Z,5.32
2023-02-27T13:27:36.438Z,6.75
2023-02-27T13:30:03.848Z,6.95
2023-02-27T13:33:03.197Z,5.88
2023-02-27T13:36:13.964Z,7.00
2023-02-27T13:38:48.973Z,9.20
2023-02-27T13:41:25.646Z,7.80
2023-02-27T13:43:57.922Z,8.35
2023-02-27T13:46:33.785Z,6.07
2023-02-27T13:49:20.015Z,6.80
2023-02-27T13:51:56.826Z,6.60
2023-02-27T13:54:40.761Z,6.78
2023-02-27T13:57:19.701Z,7.18
2023-02-27T14:00:21.257Z,7.70
2023-02-27T14:03:25.893Z,8.75
2023-02-27T14:05:57.653Z,8.15
2023-02-27T14:08:28.386Z,7.35
2023-02-27T14:11:13.459Z,6.28
2023-02-27T14:13:49.978Z,6.63
2023-02-27T14:16:41.729Z,7.28
2023-02-27T14:19:22.730Z,6.90
2023-02-27T14:22:12.216Z,7.03
2023-02-27T14:25:01.047Z,7.72
2023-02-27T14:27:57.154Z,6.22
2023-02-27T14:31:01.560Z,5.90
2023-02-27T14:33:42.412Z,7.05
2023-02-27T14:36:27.701Z,6.57
2023-02-27T14:38:58.025Z,6.63
2023-02-27T14:41:48.681Z,6.65
2023-02-27T14:44:25.632Z,6.45
2023-02-27T14:46:56.349Z,6.63
2023-02-27T14:49:33.957Z,6.55
2023-02-27T14:52:25.433Z,6.88
2023-02-27T14:54:53.799Z,7.20
2023-02-27T14:57:29.318Z,7.78
2023-02-27T14:59:56.902Z,7.00
2023-02-27T15:02:30.725Z,7.95
2023-02-27T15:05:03.701Z,5.60
2023-02-27T15:07:35.165Z,10.50
2023-02-27T15:10:10.133Z,7.03
2023-02-27T15:12:39.850Z,6.38
2023-02-27T15:15:10.137Z,6.35
2023-02-27T15:17:44.043Z,7.00
2023-02-27T15:20:36.326Z,7.20
2023-02-27T15:23:28.331Z,6.15
2023-02-27T15:25:59.318Z,6.00
2023-02-27T15:28:38.456Z,5.95
2023-02-27T15:31:08.521Z,6.28
2023-02-27T15:33:36.271Z,6.47
2023-02-27T15:36:04.161Z,6.25
2023-02-27T15:38:35.905Z,7.03
2023-02-27T15:41:05.232Z,6.78
2023-02-27T15:43:33.100Z,6.25
2023-02-27T15:46:00.972Z,6.95
2023-02-27T15:48:48.799Z,7.45
2023-02-27T15:51:16.633Z,6.53
2023-02-27T15:53:50.490Z,6.77
2023-02-27T15:56:25.685Z,6.17
2023-02-27T15:59:00.238Z,7.37
2023-02-27T16:01:38.969Z,6.00
2023-02-27T16:04:20.921Z,7.10
2023-02-27T16:07:25.627Z,6.93
2023-02-27T16:10:08.782Z,6.77
2023-02-27T16:12:39.089Z,6.10
2023-02-27T16:15:31.571Z,6.07
2023-02-27T16:18:23.597Z,6.97
2023-02-27T16:20:57.346Z,7.90
2023-02-27T16:23:34.248Z,8.30
2023-02-27T16:26:27.575Z,15.57
2023-02-27T16:29:04.807Z,21.43
2023-02-27T16:31:47.812Z,12.40
2023-02-27T16:34:44.629Z,10.50
2023-02-27T16:37:40.509Z,12.10
2023-02-27T16:40:17.011Z,8.50
2023-02-27T16:42:50.944Z,7.90
2023-02-27T16:45:25.683Z,8.53
2023-02-27T16:47:58.549Z,8.27
2023-02-27T16:50:36.279Z,7.83
2023-02-27T16:53:04.811Z,8.23
2023-02-27T16:55:33.941Z,8.20
2023-02-27T16:58:01.731Z,7.57
2023-02-27T17:00:36.553Z,7.60
2023-02-27T17:03:04.736Z,7.37
2023-02-27T17:05:34.921Z,7.37
2023-02-27T17:08:05.854Z,7.90
2023-02-27T17:10:35.116Z,8.83
2023-02-27T17:13:05.570Z,14.67
2023-02-27T17:15:33.815Z,26.13
2023-02-27T17:18:01.545Z,14.43
2023-02-27T17:20:31.701Z,17.60
2023-02-27T17:22:59.230Z,23.67
2023-02-27T17:25:32.178Z,19.90
2023-02-27T17:28:02.793Z,18.57
2023-02-27T17:30:32.886Z,24.30
2023-02-27T17:33:02.076Z,24.83
2023-02-27T17:35:33.158Z,30.23
2023-02-27T17:38:01.919Z,25.87
2023-02-27T17:40:30.210Z,23.13
2023-02-27T17:42:59.276Z,24.30
2023-02-27T17:45:29.160Z,40.30
2023-02-27T17:47:57.642Z,41.90
2023-02-27T17:50:27.432Z,35.77
2023-02-27T17:52:58.816Z,35.80
2023-02-27T17:55:26.593Z,26.50
2023-02-27T17:57:55.811Z,26.77
2023-02-27T18:00:26.603Z,30.23
2023-02-27T18:02:54.467Z,25.27
2023-02-27T18:05:22.136Z,44.43
2023-02-27T18:07:50.040Z,69.80
2023-02-27T18:10:23.800Z,25.07
2023-02-27T18:12:55.026Z,22.23
2023-02-27T18:15:25.142Z,26.27
2023-02-27T18:17:52.646Z,20.27
2023-02-27T18:20:22.061Z,21.27
2023-02-27T18:22:49.581Z,29.43
2023-02-27T18:25:17.641Z,29.43
2023-02-27T18:27:45.131Z,28.30
2023-02-27T18:30:14.048Z,28.13
2023-02-27T18:32:42.591Z,26.47
2023-02-27T18:35:16.102Z,31.27
2023-02-27T18:37:44.878Z,36.57
2023-02-27T18:40:34.554Z,44.63
2023-02-27T18:43:03.750Z,27.43
2023-02-27T18:45:51.848Z,25.03
2023-02-27T18:48:22.467Z,23.67
2023-02-27T18:50:53.300Z,23.30
2023-02-27T18:53:23.111Z,25.00
2023-02-27T18:55:52.070Z,24.17
2023-02-27T18:58:21.656Z,24.03
2023-02-27T19:01:17.625Z,16.63
2023-02-27T19:03:45.480Z,13.93
2023-02-27T19:06:17.782Z,13.73
2023-02-27T19:08:46.777Z,15.33
2023-02-27T19:11:34.811Z,13.70
2023-02-27T19:14:09.821Z,12.33
2023-02-27T19:16:37.854Z,11.67
2023-02-27T19:19:12.319Z,12.90
2023-02-27T19:21:42.851Z,13.03
2023-02-27T19:24:14.792Z,11.27
2023-02-27T19:26:42.384Z,11.20
2023-02-27T19:29:10.177Z,8.80
2023-02-27T19:31:37.991Z,9.57
2023-02-27T19:34:06.115Z,8.90
2023-02-27T19:36:34.975Z,10.57
2023-02-27T19:39:05.498Z,13.57
2023-02-27T19:41:34.630Z,13.80
2023-02-27T19:44:02.467Z,12.93
2023-02-27T19:46:34.310Z,10.23
2023-02-27T19:49:05.821Z,8.37
2023-02-27T19:51:35.213Z,8.33
2023-02-27T19:54:04.492Z,8.03
2023-02-27T19:56:40.756Z,7.73
2023-02-27T19:59:12.087Z,17.70
2023-02-27T20:01:40.846Z,14.40
2023-02-27T20:04:13.858Z,13.03
2023-02-27T20:06:44.464Z,9.53
2023-02-27T20:09:18.390Z,9.60
2023-02-27T20:11:48.727Z,9.97
2023-02-27T20:14:18.686Z,8.50
2023-02-27T20:16:48.268Z,8.30
2023-02-27T20:19:20.633Z,8.73
2023-02-27T20:21:54.566Z,15.97
2023-02-27T20:24:22.499Z,7.73
2023-02-27T20:26:55.050Z,6.57
2023-02-27T20:29:26.301Z,6.47
2023-02-27T20:31:58.329Z,7.10
2023-02-27T20:34:27.286Z,6.60
2023-02-27T20:36:57.695Z,6.30
2023-02-27T20:39:26.172Z,7.57
2023-02-27T20:41:53.742Z,7.43
2023-02-27T20:44:21.268Z,8.73
2023-02-27T20:46:50.290Z,6.70
2023-02-27T20:49:18.441Z,6.57
2023-02-27T20:51:49.570Z,6.43
2023-02-27T20:54:20.856Z,16.93
2023-02-27T20:57:06.273Z,10.07
2023-02-27T20:59:34.571Z,14.47
2023-02-27T21:02:05.196Z,14.20
2023-02-27T21:04:47.350Z,8.90
2023-02-27T21:07:22.895Z,8.80
2023-02-27T21:09:54.246Z,9.33
2023-02-27T21:12:25.273Z,16.67
2023-02-27T21:14:54.283Z,10.87
2023-02-27T21:17:25.430Z,7.93
2023-02-27T21:19:57.089Z,8.40
2023-02-27T21:22:45.501Z,7.70
2023-02-27T21:25:15.464Z,8.27
2023-02-27T21:27:43.425Z,8.17
2023-02-27T21:30:14.532Z,7.40
2023-02-27T21:32:42.629Z,6.70
2023-02-27T21:35:12.190Z,7.57
2023-02-27T21:37:49.357Z,6.90
2023-02-27T21:40:19.793Z,7.47
2023-02-27T21:42:50.425Z,6.93
2023-02-27T21:45:21.803Z,7.17
2023-02-27T21:47:51.382Z,6.93
2023-02-27T21:50:23.048Z,7.30
2023-02-27T21:52:54.715Z,8.13
2023-02-27T21:55:23.578Z,9.53
2023-02-27T21:57:53.705Z,11.17
2023-02-27T22:00:26.998Z,25.27
2023-02-27T22:02:56.113Z,10.37
2023-02-27T22:05:26.442Z,9.43
2023-02-27T22:07:59.580Z,8.23
2023-02-27T22:10:48.008Z,6.00
2023-02-27T22:13:17.098Z,6.80
2023-02-27T22:15:44.803Z,8.80
2023-02-27T22:18:18.648Z,8.03
2023-02-27T22:20:47.949Z,6.90
2023-02-27T22:23:19.219Z,7.23
2023-02-27T22:25:48.225Z,7.37
2023-02-27T22:28:15.894Z,6.63
2023-02-27T22:30:43.510Z,14.63
2023-02-27T22:33:10.932Z,19.47
2023-02-27T22:35:39.832Z,11.53
2023-02-27T22:38:08.213Z,8.97
2023-02-27T22:40:36.205Z,9.97
2023-02-27T22:43:03.948Z,8.67
2023-02-27T22:45:31.417Z,8.80
2023-02-27T22:47:59.270Z,8.07
2023-02-27T22:50:26.904Z,8.10
2023-02-27T22:52:54.376Z,7.67
2023-02-27T22:55:21.895Z,7.80
2023-02-27T22:57:51.844Z,8.00
2023-02-27T23:00:20.858Z,7.77
2023-02-27T23:02:48.412Z,8.13
2023-02-27T23:05:16.021Z,8.07
2023-02-27T23:07:43.773Z,7.70
2023-02-27T23:10:13.162Z,7.20
2023-02-27T23:12:40.703Z,7.70
2023-02-27T23:15:09.455Z,8.13
2023-02-27T23:17:43.568Z,8.33
2023-02-27T23:20:17.019Z,8.07
2023-02-27T23:22:44.542Z,7.40
2023-02-27T23:25:12.070Z,7.83
2023-02-27T23:27:39.532Z,8.63
2023-02-27T23:30:08.188Z,7.53
2023-02-27T23:32:43.545Z,7.93
2023-02-27T23:35:12.655Z,8.13
2023-02-27T23:37:40.482Z,7.87
2023-02-27T23:40:09.593Z,7.67
2023-02-27T23:42:55.664Z,8.73
2023-02-27T23:45:23.260Z,7.70
2023-02-27T23:47:56.535Z,7.20
2023-02-27T23:50:37.706Z,7.57
2023-02-27T23:53:06.693Z,6.77
2023-02-27T23:55:38.049Z,6.23
2023-02-27T23:58:09.488Z,6.63
